Time;durP1;ratioP1;P1;durP2;ratioP2;P2;SDS_P1;SDS_P2;PMS_P1;PMS_P2;Temp;Humidity;BMP_temperature;BMP_pressure;BME280_temperature;BME280_humidity;BME280_pressure;Samples;Min_cycle;Max_cycle;Signal;HPM_P1;HPM_P2
2024/03/17 00:01:51;;;;;;;4.82;4.20;;;;;;;8.74;71.86;97389.22;4973609;28;20134;-79
2024/03/17 00:04:18;;;;;;;7.70;4.95;;;;;;;8.70;72.15;97386.09;4973239;28;20054;-79
2024/03/17 00:06:47;;;;;;;7.53;5.03;;;;;;;8.66;72.23;97393.41;4981138;28;20058;-79
2024/03/17 00:09:13;;;;;;;7.10;4.95;;;;;;;8.61;72.07;97387.81;4990423;28;20050;-80
2024/03/17 00:11:39;;;;;;;5.70;5.00;;;;;;;8.56;71.95;97384.84;4983816;28;20135;-79
2024/03/17 00:14:06;;;;;;;7.03;4.78;;;;;;;8.51;72.32;97387.09;4974326;28;20051;-79
2024/03/17 00:16:33;;;;;;;6.25;4.63;;;;;;;8.49;72.43;97391.63;4972781;28;20059;-79
2024/03/17 00:18:58;;;;;;;7.45;4.78;;;;;;;8.49;72.36;97388.22;4973255;28;20059;-79
2024/03/17 00:21:26;;;;;;;6.53;4.43;;;;;;;8.49;72.48;97389.03;4973099;28;20105;-79
2024/03/17 00:23:53;;;;;;;6.18;4.57;;;;;;;8.47;72.40;97395.34;4973065;28;20055;-79
2024/03/17 00:26:20;;;;;;;4.75;4.15;;;;;;;8.44;72.39;97386.06;4972999;28;20106;-79
2024/03/17 00:28:48;;;;;;;4.00;3.60;;;;;;;8.39;71.93;97383.84;4973198;28;20063;-79
2024/03/17 00:31:15;;;;;;;11.57;5.00;;;;;;;8.33;72.10;97388.81;4973404;28;20050;-79
2024/03/17 00:33:40;;;;;;;6.15;3.88;;;;;;;8.27;72.25;97384.25;4973558;28;20065;-79
2024/03/17 00:36:07;;;;;;;7.40;4.07;;;;;;;8.27;72.44;97377.25;4973151;28;20059;-79
2024/03/17 00:38:33;;;;;;;5.40;3.90;;;;;;;8.27;72.04;97376.44;4974264;28;20474;-79
2024/03/17 00:41:03;;;;;;;5.78;4.35;;;;;;;8.25;72.22;97377.38;4976705;28;20129;-79
2024/03/17 00:43:29;;;;;;;6.57;4.30;;;;;;;8.21;72.07;97373.44;4976980;28;20062;-79
2024/03/17 00:45:55;;;;;;;4.85;4.35;;;;;;;8.20;72.30;97373.63;4976097;28;20586;-79
2024/03/17 00:48:21;;;;;;;6.63;4.50;;;;;;;8.18;72.71;97376.34;4976657;28;20062;-79
2024/03/17 00:50:56;;;;;;;4.72;3.80;;;;;;;8.21;73.53;97377.84;4976717;28;20419;-79
2024/03/17 00:53:22;;;;;;;8.73;5.38;;;;;;;8.22;73.06;97367.31;4976577;28;20059;-79
2024/03/17 00:55:52;;;;;;;8.30;5.63;;;;;;;8.20;72.62;97369.22;4976123;28;20422;-79
2024/03/17 00:58:20;;;;;;;8.43;5.47;;;;;;;8.18;72.63;97371.16;4976137;28;20047;-79
2024/03/17 01:00:47;;;;;;;6.45;4.78;;;;;;;8.17;72.44;97359.09;4978311;28;20065;-79
2024/03/17 01:03:13;;;;;;;6.03;4.53;;;;;;;8.15;72.66;97355.03;4997961;28;20061;-79
2024/03/17 01:05:42;;;;;;;6.75;4.80;;;;;;;8.12;72.31;97358.75;4997593;28;20047;-79
2024/03/17 01:08:08;;;;;;;6.32;4.82;;;;;;;8.08;72.36;97360.00;4991617;28;20065;-79
2024/03/17 01:10:38;;;;;;;7.60;4.65;;;;;;;8.03;72.36;97360.44;4978734;28;20055;-79
2024/03/17 01:13:05;;;;;;;5.05;4.53;;;;;;;7.99;72.53;97347.91;4976940;28;20063;-79
2024/03/17 01:15:34;;;;;;;10.30;5.03;;;;;;;7.97;72.60;97347.22;4976367;28;20047;-79
2024/03/17 01:17:59;;;;;;;5.35;4.63;;;;;;;7.95;72.69;97349.16;4976122;28;20062;-79
2024/03/17 01:20:26;;;;;;;7.07;4.53;;;;;;;7.92;72.99;97346.84;4977244;28;20055;-79
2024/03/17 01:22:52;;;;;;;11.00;5.53;;;;;;;7.88;73.20;97340.31;4976365;28;20062;-79
2024/03/17 01:25:19;;;;;;;7.05;5.60;;;;;;;7.88;72.98;97335.13;4975667;28;20077;-79
2024/03/17 01:27:45;;;;;;;7.07;5.10;;;;;;;7.85;72.92;97338.84;4975624;28;20113;-79
2024/03/17 01:30:13;;;;;;;7.88;5.07;;;;;;;7.81;72.92;97329.69;4976097;28;20487;-79
2024/03/17 01:32:40;;;;;;;6.65;4.55;;;;;;;7.77;72.91;97331.75;4975812;28;20059;-79
2024/03/17 01:35:07;;;;;;;6.63;4.57;;;;;;;7.70;72.88;97330.72;4975440;28;20530;-79
2024/03/17 01:37:32;;;;;;;6.97;4.35;;;;;;;7.65;72.92;97327.72;4975507;28;20455;-79
2024/03/17 01:39:59;;;;;;;6.25;4.50;;;;;;;7.60;73.24;97337.72;4975476;28;20062;-79
2024/03/17 01:42:25;;;;;;;5.45;3.92;;;;;;;7.56;73.29;97333.78;4975404;28;20063;-79
2024/03/17 01:44:52;;;;;;;5.72;4.57;;;;;;;7.56;73.48;97344.16;4975251;28;20082;-78
2024/03/17 01:47:18;;;;;;;5.28;4.57;;;;;;;7.58;75.01;97334.47;4975433;28;20054;-79
2024/03/17 01:49:47;;;;;;;6.97;4.50;;;;;;;7.68;76.35;97332.63;4975529;28;20058;-79
2024/03/17 01:52:13;;;;;;;7.53;5.60;;;;;;;7.82;76.86;97332.13;4975211;28;20055;-79
2024/03/17 01:54:40;;;;;;;6.95;4.20;;;;;;;7.87;74.89;97330.88;4975001;28;20061;-79
2024/03/17 01:57:06;;;;;;;5.45;4.68;;;;;;;7.86;74.67;97329.25;4974979;28;20433;-79
2024/03/17 01:59:33;;;;;;;5.45;4.07;;;;;;;7.86;74.92;97326.66;4975024;28;20523;-79
2024/03/17 02:01:59;;;;;;;5.95;3.83;;;;;;;7.82;74.48;97324.34;4975315;28;20403;-79
2024/03/17 02:04:27;;;;;;;7.97;4.68;;;;;;;7.80;73.68;97315.88;4975045;28;20097;-79
2024/03/17 02:06:54;;;;;;;5.55;4.70;;;;;;;7.77;73.36;97323.97;4975037;28;20058;-79
2024/03/17 02:09:21;;;;;;;5.00;4.03;;;;;;;7.75;73.39;97319.88;4974953;28;20066;-79
2024/03/17 02:11:48;;;;;;;5.28;4.35;;;;;;;7.69;73.10;97316.09;4974877;28;20069;-79
2024/03/17 02:14:17;;;;;;;5.22;3.75;;;;;;;7.63;73.23;97314.91;4974964;28;20074;-79
2024/03/17 02:16:43;;;;;;;5.53;4.15;;;;;;;7.61;73.43;97316.00;4974666;28;20061;-79
2024/03/17 02:19:09;;;;;;;6.13;4.13;;;;;;;7.61;73.45;97311.63;4975130;28;20058;-79
2024/03/17 02:21:37;;;;;;;5.72;4.07;;;;;;;7.57;73.35;97309.47;4974963;28;20062;-79
2024/03/17 02:24:06;;;;;;;4.40;3.90;;;;;;;7.55;74.03;97321.78;4974469;28;20058;-79
2024/03/17 02:26:31;;;;;;;6.05;4.35;;;;;;;7.58;73.95;97317.09;4974866;28;20059;-79
2024/03/17 02:28:58;;;;;;;4.82;3.90;;;;;;;7.64;75.33;97316.53;4974840;28;20129;-79
2024/03/17 02:31:23;;;;;;;5.10;4.10;;;;;;;7.79;77.60;97311.66;4974750;28;20105;-79
2024/03/17 02:33:50;;;;;;;5.18;4.15;;;;;;;7.83;75.45;97310.41;4974564;28;20055;-79
2024/03/17 02:36:17;;;;;;;5.15;3.70;;;;;;;7.83;74.12;97304.41;4974716;28;20058;-79
2024/03/17 02:41:29;;;;;;;6.95;4.57;;;;;;;7.91;74.46;97306.25;5037250;23;20108;-79
2024/03/17 02:43:56;;;;;;;7.88;4.85;;;;;;;7.91;73.75;97301.03;4994068;28;20046;-80
2024/03/17 02:46:23;;;;;;;5.85;4.82;;;;;;;7.90;73.58;97299.44;4993630;28;20442;-80
2024/03/17 02:48:52;;;;;;;7.38;5.35;;;;;;;7.89;73.04;97303.78;4993432;28;20058;-80
2024/03/17 02:51:20;;;;;;;5.03;4.35;;;;;;;7.89;73.28;97300.38;4977355;28;20566;-80
2024/03/17 02:53:49;;;;;;;6.13;4.63;;;;;;;7.87;72.77;97294.50;4973826;28;20050;-79
2024/03/17 02:56:18;;;;;;;9.00;4.25;;;;;;;7.83;72.64;97294.00;4974250;28;20050;-79
2024/03/17 02:58:47;;;;;;;7.90;4.35;;;;;;;7.76;72.79;97282.56;4973575;28;20057;-80
2024/03/17 03:01:14;;;;;;;7.63;3.88;;;;;;;7.76;72.97;97280.78;4973772;28;20059;-79
2024/03/17 03:03:41;;;;;;;5.50;3.92;;;;;;;7.80;74.17;97283.91;4975071;28;20058;-80
2024/03/17 03:06:11;;;;;;;6.35;4.53;;;;;;;7.81;73.40;97280.34;4974454;28;20047;-80
2024/03/17 03:08:39;;;;;;;9.30;5.18;;;;;;;7.80;73.06;97278.69;4974943;28;20511;-79
2024/03/17 03:11:07;;;;;;;5.28;4.13;;;;;;;7.77;73.00;97281.59;4975309;28;20057;-82
2024/03/17 03:13:34;;;;;;;5.45;3.53;;;;;;;7.77;73.82;97284.19;4985692;28;20127;-83
2024/03/17 03:16:02;;;;;;;5.85;4.30;;;;;;;7.77;73.37;97279.00;4976740;28;20053;-83
2024/03/17 03:18:30;;;;;;;5.90;3.97;;;;;;;7.75;72.94;97276.53;4974059;28;20102;-82
2024/03/17 03:20:56;;;;;;;4.55;3.92;;;;;;;7.74;73.22;97268.91;4973589;28;20050;-82
2024/03/17 03:23:23;;;;;;;5.13;4.45;;;;;;;7.76;73.04;97267.81;4974125;28;20050;-82
2024/03/17 03:25:55;;;;;;;9.45;4.20;;;;;;;7.75;73.29;97267.94;4973438;28;20046;-82
2024/03/17 03:28:22;;;;;;;5.72;4.00;;;;;;;7.76;73.14;97262.63;4974022;28;20063;-82
2024/03/17 03:30:49;;;;;;;4.78;3.78;;;;;;;7.77;73.04;97264.22;4973710;28;20078;-82
2024/03/17 03:33:17;;;;;;;4.85;4.18;;;;;;;7.78;72.97;97265.88;4973711;28;20506;-82
2024/03/17 03:35:45;;;;;;;6.70;4.13;;;;;;;7.79;72.99;97271.88;4973239;28;20502;-82
2024/03/17 03:38:13;;;;;;;6.72;3.92;;;;;;;7.82;73.05;97282.78;4973873;28;20057;-83
2024/03/17 03:40:42;;;;;;;4.47;3.88;;;;;;;7.90;75.90;97283.84;4973489;28;20054;-82
2024/03/17 03:43:09;;;;;;;8.52;4.75;;;;;;;8.01;77.29;97278.41;4974498;28;20474;-82
2024/03/17 03:45:36;;;;;;;5.93;4.70;;;;;;;8.11;75.58;97276.56;4974239;28;20102;-80
2024/03/17 03:48:03;;;;;;;5.10;4.38;;;;;;;8.09;73.68;97270.72;4974718;28;20062;-80
2024/03/17 03:50:32;;;;;;;5.70;5.10;;;;;;;8.03;73.21;97266.91;4975054;28;20063;-80
2024/03/17 03:52:58;;;;;;;4.60;3.92;;;;;;;8.02;73.40;97274.84;4974478;28;20116;-79
2024/03/17 03:55:25;;;;;;;5.03;3.83;;;;;;;8.04;73.31;97278.13;4975057;28;20101;-80
2024/03/17 03:57:53;;;;;;;4.80;3.60;;;;;;;8.03;73.19;97274.69;4974590;28;20059;-80
2024/03/17 04:00:21;;;;;;;6.93;4.20;;;;;;;8.01;73.03;97276.63;4973836;28;20089;-79
2024/03/17 04:02:49;;;;;;;5.40;3.70;;;;;;;7.97;72.81;97274.47;4973282;28;20051;-80
2024/03/17 04:05:16;;;;;;;5.22;4.13;;;;;;;7.96;72.92;97284.06;4974262;28;20422;-79
2024/03/17 04:07:45;;;;;;;6.32;3.70;;;;;;;7.98;74.56;97274.34;4974478;28;20430;-80
2024/03/17 04:10:13;;;;;;;5.10;3.97;;;;;;;8.02;73.83;97278.28;4974745;28;20450;-79
2024/03/17 04:12:40;;;;;;;4.28;3.78;;;;;;;8.10;75.02;97277.53;4974128;28;20058;-79
2024/03/17 04:15:09;;;;;;;6.90;4.13;;;;;;;8.12;73.80;97272.19;4974262;28;20418;-79
2024/03/17 04:17:36;;;;;;;7.07;3.85;;;;;;;8.12;72.93;97267.78;4973295;28;20050;-80
2024/03/17 04:20:04;;;;;;;5.13;3.92;;;;;;;8.13;73.15;97269.41;4973903;28;20055;-80
2024/03/17 04:22:31;;;;;;;6.90;4.18;;;;;;;8.10;72.56;97269.72;4973543;28;20407;-79
2024/03/17 04:24:59;;;;;;;5.30;4.20;;;;;;;8.05;72.26;97271.97;4973511;28;20399;-80
2024/03/17 04:27:25;;;;;;;6.97;4.55;;;;;;;8.00;72.48;97264.63;4974532;28;20054;-81
2024/03/17 04:29:54;;;;;;;6.20;4.30;;;;;;;7.96;72.44;97265.03;4973375;28;20063;-79
2024/03/17 04:32:21;;;;;;;6.85;4.50;;;;;;;7.94;72.53;97256.59;4973568;28;20062;-79
2024/03/17 04:34:47;;;;;;;5.28;4.20;;;;;;;7.92;72.58;97258.53;4973563;28;20074;-80
2024/03/17 04:37:14;;;;;;;4.97;3.92;;;;;;;7.88;72.57;97254.59;4973392;28;20054;-79
2024/03/17 04:39:42;;;;;;;7.05;4.43;;;;;;;7.82;72.67;97262.00;4973174;28;20419;-79
2024/03/17 04:42:10;;;;;;;6.53;3.95;;;;;;;7.78;72.91;97268.47;4973353;28;20050;-80
2024/03/17 04:44:37;;;;;;;4.82;4.00;;;;;;;7.75;72.89;97271.34;4977580;28;20323;-80
2024/03/17 04:47:06;;;;;;;5.53;3.75;;;;;;;7.74;73.06;97267.13;4997453;28;20049;-81
2024/03/17 04:49:33;;;;;;;7.05;4.47;;;;;;;7.76;73.17;97279.94;4992481;28;20043;-80
2024/03/17 04:52:00;;;;;;;4.45;3.70;;;;;;;7.78;73.32;97273.66;4973911;28;20050;-80
2024/03/17 04:54:27;;;;;;;4.70;3.70;;;;;;;7.78;72.96;97271.06;4973628;28;20059;-82
2024/03/17 04:56:53;;;;;;;10.23;4.22;;;;;;;7.79;73.06;97277.88;4973088;28;20418;-82
2024/03/17 04:59:21;;;;;;;5.18;3.50;;;;;;;7.79;72.97;97275.28;4972895;28;20426;-82
2024/03/17 05:01:48;;;;;;;3.92;3.13;;;;;;;7.79;72.52;97277.88;4972736;28;20055;-82
2024/03/17 05:04:15;;;;;;;6.13;3.90;;;;;;;7.75;72.76;97271.34;4972808;28;20051;-82
2024/03/17 05:06:46;;;;;;;3.88;3.47;;;;;;;7.75;72.72;97278.34;4972489;28;20051;-82
2024/03/17 05:09:13;;;;;;;5.40;3.45;;;;;;;7.73;72.87;97283.66;4973247;28;20055;-80
2024/03/17 05:11:40;;;;;;;3.92;3.08;;;;;;;7.74;72.83;97289.66;4972933;28;20051;-79
2024/03/17 05:14:07;;;;;;;5.28;3.60;;;;;;;7.73;73.01;97283.66;4973414;28;20059;-80
2024/03/17 05:16:35;;;;;;;7.60;4.35;;;;;;;7.73;73.02;97288.06;4974405;28;20150;-80
2024/03/17 05:19:03;;;;;;;4.07;3.13;;;;;;;7.76;73.64;97292.94;4984656;28;20070;-80
2024/03/17 05:21:30;;;;;;;5.18;3.53;;;;;;;7.79;73.17;97287.47;4973182;28;20047;-79
2024/03/17 05:23:58;;;;;;;4.75;3.70;;;;;;;7.79;73.07;97293.47;4972810;28;20511;-79
2024/03/17 05:26:25;;;;;;;4.40;3.58;;;;;;;7.81;73.29;97291.53;4976419;28;20082;-79
2024/03/17 05:28:52;;;;;;;4.82;3.47;;;;;;;7.89;74.79;97287.38;4976712;28;20050;-79
2024/03/17 05:31:20;;;;;;;6.35;4.28;;;;;;;7.98;73.97;97286.50;4976547;28;20061;-79
2024/03/17 05:33:48;;;;;;;5.85;4.00;;;;;;;8.05;74.94;97284.97;4976764;28;20058;-79
2024/03/17 05:36:16;;;;;;;5.25;4.55;;;;;;;8.08;75.62;97291.63;4976908;28;20419;-79
2024/03/17 05:38:42;;;;;;;7.55;4.60;;;;;;;8.16;76.49;97289.91;4976744;28;20059;-79
2024/03/17 05:41:10;;;;;;;5.78;4.40;;;;;;;8.20;76.69;97291.25;4976813;28;20066;-79
2024/03/17 05:43:38;;;;;;;4.75;4.05;;;;;;;8.26;77.29;97297.63;4976880;28;20055;-79
2024/03/17 05:46:07;;;;;;;5.35;4.10;;;;;;;8.25;75.39;97289.00;4976400;28;20051;-80
2024/03/17 05:48:33;;;;;;;5.25;4.22;;;;;;;8.22;73.69;97284.13;4976675;28;20500;-79
2024/03/17 05:51:03;;;;;;;5.18;3.72;;;;;;;8.18;73.16;97293.19;4976442;28;20056;-79
2024/03/17 05:53:31;;;;;;;8.55;4.50;;;;;;;8.14;73.08;97289.25;4976590;28;20062;-79
2024/03/17 05:55:59;;;;;;;9.82;4.78;;;;;;;8.16;74.40;97283.91;4976380;28;20137;-79
2024/03/17 05:58:26;;;;;;;7.13;5.05;;;;;;;8.17;73.29;97286.34;4976698;28;20050;-79
2024/03/17 06:00:53;;;;;;;6.70;4.85;;;;;;;8.15;72.59;97288.28;4976597;28;20423;-79
2024/03/17 06:03:21;;;;;;;6.88;4.82;;;;;;;8.12;72.69;97283.38;4976614;28;20050;-79
2024/03/17 06:05:48;;;;;;;6.22;4.60;;;;;;;8.13;72.41;97284.19;4976203;28;20054;-79
2024/03/17 06:08:17;;;;;;;6.93;5.35;;;;;;;8.12;72.01;97285.97;4976331;28;20058;-79
2024/03/17 06:10:46;;;;;;;7.03;4.68;;;;;;;8.15;73.65;97277.88;4976394;28;20055;-79
2024/03/17 06:13:13;;;;;;;5.93;4.50;;;;;;;8.20;72.69;97285.25;4975922;28;20054;-79
2024/03/17 06:15:40;;;;;;;6.82;4.63;;;;;;;8.20;72.06;97288.66;4975757;28;20055;-79
2024/03/17 06:18:08;;;;;;;8.57;5.65;;;;;;;8.19;72.01;97284.41;4975721;28;20051;-79
2024/03/17 06:20:35;;;;;;;8.32;5.45;;;;;;;8.19;71.85;97286.19;4979645;28;20474;-79
2024/03/17 06:23:02;;;;;;;8.60;5.35;;;;;;;8.16;71.56;97279.53;4983543;28;20066;-78
2024/03/17 06:25:30;;;;;;;11.02;6.45;;;;;;;8.15;71.46;97271.88;4998361;28;20041;-80
2024/03/17 06:27:57;;;;;;;7.75;5.03;;;;;;;8.15;71.54;97283.06;4998572;28;20527;-81
2024/03/17 06:30:24;;;;;;;5.95;4.53;;;;;;;8.16;71.22;97283.91;4993144;28;20061;-79
2024/03/17 06:32:50;;;;;;;5.95;4.72;;;;;;;8.14;71.38;97273.66;4978930;28;20058;-79
2024/03/17 06:35:18;;;;;;;7.30;4.60;;;;;;;8.14;71.24;97278.84;4979149;28;20426;-79
2024/03/17 06:37:45;;;;;;;4.78;3.90;;;;;;;8.15;71.54;97275.28;4975279;28;20431;-79
2024/03/17 06:40:14;;;;;;;4.28;3.70;;;;;;;8.16;71.25;97276.94;4976193;28;20113;-78
2024/03/17 06:42:42;;;;;;;5.95;4.30;;;;;;;8.17;71.17;97277.75;4975812;28;20160;-79
2024/03/17 06:45:10;;;;;;;5.95;4.45;;;;;;;8.17;71.27;97281.16;4975668;28;20051;-79
2024/03/17 06:47:37;;;;;;;7.53;4.47;;;;;;;8.18;71.11;97272.41;4978136;28;20474;-81
2024/03/17 06:50:15;;;;;;;5.20;3.92;;;;;;;8.22;71.11;97263.34;4976784;28;20057;-80
2024/03/17 06:52:42;;;;;;;7.13;4.40;;;;;;;8.33;70.96;97266.66;4976114;28;20478;-76
2024/03/17 06:55:09;;;;;;;5.53;4.03;;;;;;;8.38;70.64;97261.84;4976855;28;20058;-78
2024/03/17 06:57:36;;;;;;;7.85;4.20;;;;;;;8.44;70.47;97266.47;4979313;28;20081;-79
2024/03/17 07:00:05;;;;;;;6.50;4.20;;;;;;;8.52;70.15;97269.09;4978144;28;20066;-78
2024/03/17 07:02:33;;;;;;;9.38;3.58;;;;;;;8.62;70.15;97267.22;4968505;28;20430;-77
2024/03/17 07:04:59;;;;;;;7.47;4.43;;;;;;;8.72;69.71;97253.28;4955813;28;20082;-76
2024/03/17 07:07:27;;;;;;;5.82;4.30;;;;;;;8.84;69.53;97263.28;4955057;28;20051;-78
2024/03/17 07:09:54;;;;;;;7.45;4.32;;;;;;;8.97;69.04;97257.66;4955298;28;20055;-78
2024/03/17 07:12:21;;;;;;;6.90;4.15;;;;;;;9.09;68.72;97260.78;4956750;28;20431;-78
2024/03/17 07:14:51;;;;;;;9.35;4.85;;;;;;;9.24;68.64;97263.63;4993086;28;20137;-80
2024/03/17 07:17:19;;;;;;;5.68;4.28;;;;;;;9.42;68.15;97268.72;4992974;28;20058;-79
2024/03/17 07:19:45;;;;;;;6.28;4.28;;;;;;;9.59;68.23;97262.59;4977622;28;20063;-78
2024/03/17 07:22:12;;;;;;;5.32;4.10;;;;;;;9.74;68.27;97268.00;4989892;28;20054;-78
2024/03/17 07:24:39;;;;;;;6.03;4.28;;;;;;;9.89;67.74;97268.22;4993955;28;20576;-78
2024/03/17 07:27:08;;;;;;;9.13;4.95;;;;;;;10.07;67.57;97270.66;4993319;28;20054;-79
2024/03/17 07:29:35;;;;;;;5.53;4.25;;;;;;;10.26;66.04;97265.13;4993411;28;20054;-81
2024/03/17 07:32:02;;;;;;;5.30;3.50;;;;;;;10.43;65.64;97265.97;4993801;28;20057;-80
2024/03/17 07:34:33;;;;;;;5.22;4.00;;;;;;;10.61;64.94;97263.19;4978402;28;20058;-80
2024/03/17 07:37:00;;;;;;;5.07;3.90;;;;;;;10.83;64.62;97266.09;4959924;28;20055;-80
2024/03/17 07:39:32;;;;;;;5.10;4.13;;;;;;;10.99;63.14;97266.03;4959946;28;20051;-80
2024/03/17 07:41:59;;;;;;;4.28;3.55;;;;;;;11.16;63.48;97266.78;4955143;28;20051;-80
2024/03/17 07:44:26;;;;;;;8.90;4.22;;;;;;;11.33;62.98;97262.31;4956500;28;20428;-81
2024/03/17 07:46:55;;;;;;;5.10;3.67;;;;;;;11.50;62.20;97263.88;4988328;28;20039;-81
2024/03/17 07:49:21;;;;;;;6.68;4.30;;;;;;;11.68;65.42;97257.59;4990048;28;20031;-80
2024/03/17 07:51:49;;;;;;;4.72;3.67;;;;;;;11.85;62.04;97261.72;4957354;28;20081;-81
2024/03/17 07:54:16;;;;;;;4.22;3.50;;;;;;;12.03;61.98;97263.28;4954770;28;20051;-80
2024/03/17 07:56:43;;;;;;;4.85;3.40;;;;;;;12.24;60.50;97260.00;4964288;28;20422;-81
2024/03/17 07:59:12;;;;;;;4.88;3.70;;;;;;;12.58;61.12;97264.78;4974107;28;20059;-80
2024/03/17 08:01:38;;;;;;;5.20;3.83;;;;;;;13.07;59.08;97264.25;4958079;28;20435;-81
2024/03/17 08:04:05;;;;;;;5.30;3.75;;;;;;;13.71;56.33;97268.09;4954398;28;20059;-81
2024/03/17 08:06:32;;;;;;;4.47;3.75;;;;;;;14.33;54.76;97264.88;4954342;29;20054;-80
2024/03/17 08:09:00;;;;;;;3.88;3.45;;;;;;;14.85;53.75;97270.75;4963107;28;20117;-80
2024/03/17 08:11:26;;;;;;;5.20;3.83;;;;;;;14.99;52.33;97261.13;4972406;28;20054;-80
2024/03/17 08:13:54;;;;;;;6.00;3.70;;;;;;;14.82;52.16;97260.63;4954178;28;20462;-80
2024/03/17 08:16:21;;;;;;;5.40;3.55;;;;;;;14.62;52.61;97261.28;4954518;28;20043;-80
2024/03/17 08:18:47;;;;;;;4.40;3.63;;;;;;;14.60;52.28;97260.66;4953716;28;20058;-80
2024/03/17 08:21:14;;;;;;;5.85;3.90;;;;;;;14.99;51.89;97254.06;4969282;28;20046;-80
2024/03/17 08:23:42;;;;;;;3.33;3.03;;;;;;;15.25;51.26;97255.19;4992238;28;20057;-77
2024/03/17 08:26:10;;;;;;;4.28;2.90;;;;;;;15.08;51.71;97252.06;4972037;28;20062;-80
2024/03/17 08:28:37;;;;;;;6.18;3.80;;;;;;;14.84;51.99;97251.53;4962302;28;20055;-80
2024/03/17 08:31:04;;;;;;;5.20;3.15;;;;;;;14.68;52.78;97259.72;4956163;28;20512;-80
2024/03/17 08:33:33;;;;;;;4.28;3.50;;;;;;;14.57;56.75;97262.88;4972503;28;20058;-79
2024/03/17 08:36:01;;;;;;;5.43;3.42;;;;;;;14.49;57.48;97257.72;4972280;28;20050;-80
2024/03/17 08:38:29;;;;;;;5.28;3.63;;;;;;;14.35;54.77;97252.38;4972913;28;20058;-81
2024/03/17 08:40:57;;;;;;;5.40;3.67;;;;;;;14.29;53.63;97245.25;4972431;28;20435;-81
2024/03/17 08:43:25;;;;;;;4.82;3.47;;;;;;;14.52;52.61;97236.34;4973387;28;20062;-82
2024/03/17 08:45:58;;;;;;;3.55;3.25;;;;;;;15.11;50.48;97238.56;4973525;28;20059;-81
2024/03/17 08:48:25;;;;;;;3.88;3.30;;;;;;;15.55;49.75;97229.44;4964285;28;20055;-81
2024/03/17 08:50:52;;;;;;;3.95;3.03;;;;;;;15.75;49.00;97228.72;4954840;28;20060;-81
2024/03/17 08:53:19;;;;;;;3.38;2.80;;;;;;;16.00;48.38;97231.59;4971483;28;20046;-81
2024/03/17 08:55:45;;;;;;;3.22;2.75;;;;;;;16.22;49.63;97226.94;4972438;28;20055;-81
2024/03/17 08:58:12;;;;;;;3.40;3.08;;;;;;;16.30;47.94;97226.75;4973701;28;20063;-81
2024/03/17 09:00:41;;;;;;;3.80;3.40;;;;;;;16.10;47.09;97215.41;4970942;28;20055;-78
2024/03/17 09:03:09;;;;;;;5.22;3.55;;;;;;;15.85;48.64;97208.91;4966461;28;20422;-78
2024/03/17 09:05:36;;;;;;;3.80;3.22;;;;;;;15.73;53.22;97207.06;4977041;28;20063;-78
2024/03/17 09:08:03;;;;;;;5.32;2.90;;;;;;;15.62;49.37;97208.44;4976524;28;20046;-81
2024/03/17 09:10:29;;;;;;;3.40;2.53;;;;;;;15.47;53.21;97219.09;4965030;28;20431;-81
2024/03/17 09:12:56;;;;;;;4.18;3.00;;;;;;;15.38;51.44;97213.19;4957330;28;20055;-81
2024/03/17 09:15:23;;;;;;;3.35;2.95;;;;;;;15.33;54.27;97214.81;4960641;28;20094;-81
2024/03/17 09:17:51;;;;;;;4.15;3.40;;;;;;;15.18;49.40;97214.94;4956436;29;20059;-81
2024/03/17 09:20:17;;;;;;;4.60;3.40;;;;;;;15.01;49.50;97203.94;4956538;29;20055;-80
2024/03/17 09:22:44;;;;;;;3.97;3.20;;;;;;;14.97;48.51;97218.47;4956159;29;20511;-80
2024/03/17 09:25:11;;;;;;;8.63;3.10;;;;;;;15.00;48.35;97210.22;4964470;28;20043;-78
2024/03/17 09:27:38;;;;;;;4.75;3.10;;;;;;;15.07;48.22;97203.19;4974688;28;20051;-82
2024/03/17 09:30:09;;;;;;;3.72;2.80;;;;;;;15.15;47.86;97213.53;4975883;28;20062;-81
2024/03/17 09:32:36;;;;;;;3.67;2.78;;;;;;;15.21;47.34;97211.91;4975622;28;20055;-80
2024/03/17 09:35:04;;;;;;;5.45;2.80;;;;;;;15.25;47.65;97213.97;4970052;28;20055;-83
2024/03/17 09:37:31;;;;;;;2.47;2.10;;;;;;;15.33;51.74;97204.31;4976830;28;20055;-81
2024/03/17 09:39:59;;;;;;;5.47;3.35;;;;;;;15.31;48.92;97203.69;4975500;28;20565;-81
2024/03/17 09:42:28;;;;;;;5.75;2.80;;;;;;;15.25;48.26;97207.91;4968574;28;20503;-81
2024/03/17 09:44:56;;;;;;;3.13;2.80;;;;;;;15.25;53.26;97202.63;4956202;29;20066;-80
2024/03/17 09:47:26;;;;;;;3.95;3.03;;;;;;;15.27;49.10;97202.44;4956486;28;20059;-81
2024/03/17 09:49:53;;;;;;;3.22;2.55;;;;;;;15.22;47.90;97209.09;4956308;29;20118;-80
2024/03/17 09:52:23;;;;;;;3.38;2.65;;;;;;;15.14;46.80;97211.09;4955975;28;20055;-80
2024/03/17 09:54:56;;;;;;;3.10;2.38;;;;;;;15.02;47.82;97203.75;4965699;28;20058;-77
2024/03/17 09:57:24;;;;;;;2.80;2.10;;;;;;;14.94;52.50;97205.75;4966082;28;20039;-81
2024/03/17 09:59:52;;;;;;;5.03;3.10;;;;;;;14.88;49.15;97204.69;4956068;28;20419;-80
2024/03/17 10:02:20;;;;;;;5.13;2.85;;;;;;;14.73;49.10;97198.75;4974856;28;20050;-81
2024/03/17 10:04:48;;;;;;;3.85;2.53;;;;;;;14.59;49.03;97203.91;4995719;28;20228;-82
2024/03/17 10:07:15;;;;;;;4.47;3.03;;;;;;;14.52;49.31;97202.22;4995567;28;20051;-82
2024/03/17 10:10:13;;;;;;;5.00;3.08;;;;;;;14.48;48.79;97199.16;4984884;28;20055;-82
2024/03/17 10:12:40;;;;;;;4.82;2.80;;;;;;;14.45;48.50;97201.34;4975446;28;20043;-81
2024/03/17 10:15:12;;;;;;;3.33;3.00;;;;;;;14.38;48.07;97210.00;4977889;28;20047;-81
2024/03/17 10:17:39;;;;;;;4.10;3.30;;;;;;;14.32;48.61;97202.91;4958927;29;20059;-80
2024/03/17 10:20:15;;;;;;;4.18;2.90;;;;;;;14.28;49.92;97204.28;4955694;28;20523;-80
2024/03/17 10:22:57;;;;;;;3.30;2.78;;;;;;;14.22;49.29;97205.03;4956101;29;20503;-79
2024/03/17 10:25:25;;;;;;;3.63;3.20;;;;;;;14.18;48.94;97206.41;4957093;28;20055;-79
2024/03/17 10:27:53;;;;;;;3.83;2.83;;;;;;;14.14;49.88;97202.53;4957272;28;20309;-80
2024/03/17 10:30:21;;;;;;;3.80;2.90;;;;;;;14.19;49.68;97203.59;4955205;28;20058;-80
2024/03/17 10:32:53;;;;;;;3.78;3.15;;;;;;;14.24;51.29;97205.66;4974459;28;20062;-82
2024/03/17 10:35:42;;;;;;;4.47;3.22;;;;;;;14.34;52.34;97216.66;4998774;28;20049;-80
2024/03/17 10:38:10;;;;;;;6.63;3.25;;;;;;;14.32;52.50;97205.53;4973132;28;20055;-79
2024/03/17 10:40:39;;;;;;;2.78;2.42;;;;;;;14.33;53.14;97199.25;4955996;28;20082;-79
2024/03/17 10:43:06;;;;;;;3.63;2.95;;;;;;;14.34;55.02;97195.66;4976935;28;20061;-80
2024/03/17 10:45:37;;;;;;;4.13;2.60;;;;;;;14.39;55.80;97193.25;4995653;28;20057;-81
2024/03/17 10:48:04;;;;;;;3.60;2.95;;;;;;;14.43;52.50;97199.75;4990290;28;20061;-80
2024/03/17 10:50:32;;;;;;;3.00;2.70;;;;;;;14.48;53.49;97193.13;4984803;28;20054;-80
2024/03/17 10:53:03;;;;;;;2.78;2.17;;;;;;;14.50;50.33;97193.75;4957454;28;20519;-80
2024/03/17 10:55:41;;;;;;;4.07;3.10;;;;;;;14.46;50.74;97192.50;4955686;29;20071;-81
2024/03/17 10:58:23;;;;;;;3.47;3.05;;;;;;;14.38;52.95;97194.25;4964348;29;20047;-81
2024/03/17 11:00:51;;;;;;;3.92;2.38;;;;;;;14.35;53.20;97192.00;4984016;28;20054;-80
2024/03/17 11:03:19;;;;;;;2.60;2.35;;;;;;;14.40;55.70;97192.25;5005891;28;20062;-80
2024/03/17 11:05:49;;;;;;;3.17;2.63;;;;;;;14.45;51.62;97191.66;5007135;28;20062;-80
2024/03/17 11:08:17;;;;;;;3.65;2.40;;;;;;;14.46;51.47;97193.31;4995718;28;20057;-79
2024/03/17 11:10:52;;;;;;;4.90;2.50;;;;;;;14.47;51.87;97189.66;4974650;28;20057;-78
2024/03/17 11:13:28;;;;;;;3.10;1.98;;;;;;;14.54;52.43;97198.41;4957365;28;20511;-80
2024/03/17 11:15:58;;;;;;;2.75;2.10;;;;;;;14.61;51.50;97193.22;4961831;28;20082;-80
2024/03/17 11:18:37;;;;;;;3.30;2.40;;;;;;;14.67;52.89;97187.22;4974065;28;20058;-79
2024/03/17 11:21:10;;;;;;;3.22;1.90;;;;;;;14.71;52.29;97182.38;4974090;28;20065;-80
2024/03/17 11:23:37;;;;;;;2.35;1.83;;;;;;;14.70;50.51;97188.63;4973562;28;20486;-80
2024/03/17 11:26:05;;;;;;;2.35;1.73;;;;;;;14.69;49.68;97190.44;4966582;28;20051;-81
2024/03/17 11:28:51;;;;;;;3.90;1.80;;;;;;;14.76;53.55;97193.94;4955441;29;20051;-80
2024/03/17 11:31:44;;;;;;;2.97;2.05;;;;;;;14.81;52.35;97185.47;4970625;28;20055;-79
2024/03/17 11:34:29;;;;;;;3.03;2.17;;;;;;;14.86;52.60;97175.19;4972241;28;20042;-79
2024/03/17 11:36:57;;;;;;;2.38;1.90;;;;;;;14.87;50.20;97178.59;4973402;28;20058;-80
2024/03/17 11:39:45;;;;;;;2.55;1.75;;;;;;;14.91;49.90;97182.47;4972538;28;20499;-79
2024/03/17 11:42:14;;;;;;;4.32;1.80;;;;;;;14.96;53.46;97182.72;5008263;23;20054;-79
2024/03/17 11:44:45;;;;;;;3.33;1.75;;;;;;;14.98;55.80;97173.63;5006080;28;20042;-80
2024/03/17 11:47:11;;;;;;;2.60;2.10;;;;;;;15.04;54.86;97170.22;4991056;28;20065;-78